TimeEDT,TemperatureF,Dew PointF,Humidity,Sea Level PressureIn,VisibilityMPH,Wind Direction,Wind SpeedMPH,Gust SpeedMPH,PrecipitationIn,Events,Conditions,WindDirDegrees,DateUTC
12:54 AM,55.0,39.9,57,30.22,10.0,Calm,Calm,-,N/A,,Scattered Clouds,0,2013-05-27 04:54:00
1:54 AM,54.0,39.0,57,30.23,10.0,Calm,Calm,-,N/A,,Scattered Clouds,0,2013-05-27 05:54:00
2:54 AM,52.0,39.0,61,30.24,10.0,NNW,6.9,-,N/A,,Partly Cloudy,330,2013-05-27 06:54:00
3:54 AM,50.0,39.9,68,30.24,10.0,Calm,Calm,-,N/A,,Partly Cloudy,0,2013-05-27 07:54:00
4:54 AM,48.0,41.0,77,30.25,10.0,Calm,Calm,-,N/A,,Partly Cloudy,0,2013-05-27 08:54:00
5:54 AM,46.9,39.9,77,30.26,10.0,Calm,Calm,-,N/A,,Mostly Cloudy,0,2013-05-27 09:54:00
6:54 AM,53.1,41.0,64,30.27,10.0,Calm,Calm,-,N/A,,Mostly Cloudy,0,2013-05-27 10:54:00
7:54 AM,59.0,39.9,49,30.27,10.0,Calm,Calm,-,N/A,,Mostly Cloudy,0,2013-05-27 11:54:00
8:54 AM,62.1,37.9,41,30.28,10.0,Calm,Calm,-,N/A,,Mostly Cloudy,0,2013-05-27 12:54:00
9:54 AM,64.9,39.0,39,30.28,10.0,Variable,3.5,-,N/A,,Mostly Cloudy,0,2013-05-27 13:54:00
10:54 AM,69.1,37.0,31,30.27,10.0,ENE,4.6,-,N/A,,Mostly Cloudy,60,2013-05-27 14:54:00
11:54 AM,71.1,37.0,29,30.26,10.0,Calm,Calm,-,N/A,,Mostly Cloudy,0,2013-05-27 15:54:00
12:54 PM,71.1,37.0,29,30.25,10.0,West,4.6,-,N/A,,Mostly Cloudy,270,2013-05-27 16:54:00
1:54 PM,71.1,36.0,28,30.24,10.0,SW,4.6,-,N/A,,Overcast,220,2013-05-27 17:54:00
2:54 PM,70.0,39.0,32,30.22,10.0,WSW,6.9,-,N/A,,Overcast,240,2013-05-27 18:54:00
3:54 PM,71.1,39.9,32,30.20,10.0,West,9.2,-,N/A,,Overcast,270,2013-05-27 19:54:00
4:54 PM,70.0,41.0,35,30.19,10.0,WSW,5.8,-,N/A,,Overcast,250,2013-05-27 20:54:00
5:54 PM,69.1,43.0,39,30.19,10.0,West,8.1,-,N/A,,Overcast,270,2013-05-27 21:54:00
6:54 PM,68.0,42.8,40,30.18,10.0,West,5.8,-,N/A,,Overcast,270,2013-05-27 22:54:00
7:54 PM,66.9,43.0,42,30.19,10.0,NW,3.5,-,N/A,,Overcast,320,2013-05-27 23:54:00
8:54 PM,64.9,46.0,50,30.19,10.0,Calm,Calm,-,N/A,,Mostly Cloudy,0,2013-05-28 00:54:00
9:54 PM,63.0,48.0,58,30.20,10.0,Calm,Calm,-,N/A,,Overcast,0,2013-05-28 01:54:00
10:54 PM,63.0,48.0,58,30.22,10.0,Calm,Calm,-,N/A,,Overcast,0,2013-05-28 02:54:00
11:54 PM,61.0,50.0,67,30.21,10.0,Calm,Calm,-,N/A,,Mostly Cloudy,0,2013-05-28 03:54:00